Terminal Aerodrome Forecast
Issued by NWS Columbia, SC

Home | Current Version | Previous Version | Text Only | Print | Product List | Glossary On
Versions: 1 2 3 4 5 6 7 8 9 10 11 12 13 14 15 16 17 18 19 20 21 22 23 24 25 26 27
000
FTUS42 KCAE 220500
TAFCAE
TAF
KCAE 220528Z 2206/2306 05006KT 3SM -RA BR OVC007
     FM221300 04006KT 4SM -DZ BR OVC007
     FM221800 04005KT 4SM -DZ BR OVC012
     FM230200 05003KT 2SM BR OVC007=

USA.gov is the U.S. government's official web portal to all federal, state and local government web resources and services.